sensor_id;sensor_type;location;lat;lon;timestamp;pressure;altitude;pressure_sealevel;temperature;humidity
52957;BME280;38819;42.692;23.342;2022-09-09T00:02:14;95494.75;;;19.96;61.84
52957;BME280;38819;42.692;23.342;2022-09-09T00:04:53;95493.28;;;19.98;61.44
52957;BME280;38819;42.692;23.342;2022-09-09T00:12:38;95486.53;;;19.96;62.27
52957;BME280;38819;42.692;23.342;2022-09-09T00:15:13;95489.50;;;20.03;61.86
52957;BME280;38819;42.692;23.342;2022-09-09T00:20:38;95492.34;;;19.94;62.38
52957;BME280;38819;42.692;23.342;2022-09-09T00:23:12;95486.19;;;19.97;62.36
52957;BME280;38819;42.692;23.342;2022-09-09T00:25:52;95479.22;;;20.00;62.43
52957;BME280;38819;42.692;23.342;2022-09-09T00:28:22;95473.28;;;19.86;63.15
52957;BME280;38819;42.692;23.342;2022-09-09T00:30:49;95462.34;;;19.73;63.83
52957;BME280;38819;42.692;23.342;2022-09-09T00:33:18;95469.28;;;19.71;63.69
52957;BME280;38819;42.692;23.342;2022-09-09T00:35:57;95469.56;;;19.78;64.03
52957;BME280;38819;42.692;23.342;2022-09-09T00:38:29;95464.50;;;19.68;63.89
52957;BME280;38819;42.692;23.342;2022-09-09T00:43:40;95451.13;;;19.66;64.32
52957;BME280;38819;42.692;23.342;2022-09-09T00:57:26;95458.00;;;19.48;65.83
52957;BME280;38819;42.692;23.342;2022-09-09T01:00:23;95449.34;;;19.46;65.80
52957;BME280;38819;42.692;23.342;2022-09-09T01:03:22;95447.53;;;19.50;65.58
52957;BME280;38819;42.692;23.342;2022-09-09T01:10:52;95450.63;;;19.48;65.67
52957;BME280;38819;42.692;23.342;2022-09-09T01:13:25;95460.75;;;19.48;65.86
52957;BME280;38819;42.692;23.342;2022-09-09T01:15:51;95461.34;;;19.53;65.66
52957;BME280;38819;42.692;23.342;2022-09-09T01:18:23;95460.88;;;19.51;65.96
52957;BME280;38819;42.692;23.342;2022-09-09T01:21:14;95470.13;;;19.47;66.11
52957;BME280;38819;42.692;23.342;2022-09-09T01:26:45;95459.50;;;19.45;66.04
52957;BME280;38819;42.692;23.342;2022-09-09T01:29:16;95454.63;;;19.38;66.35
52957;BME280;38819;42.692;23.342;2022-09-09T01:34:21;95451.84;;;19.26;67.17
52957;BME280;38819;42.692;23.342;2022-09-09T01:39:25;95470.03;;;19.18;67.75
52957;BME280;38819;42.692;23.342;2022-09-09T01:41:52;95472.53;;;19.23;67.46
52957;BME280;38819;42.692;23.342;2022-09-09T01:44:18;95471.25;;;19.21;67.25
52957;BME280;38819;42.692;23.342;2022-09-09T01:46:44;95475.59;;;19.22;67.25
52957;BME280;38819;42.692;23.342;2022-09-09T01:49:10;95468.66;;;19.24;67.01
52957;BME280;38819;42.692;23.342;2022-09-09T01:51:38;95468.53;;;19.21;67.31
52957;BME280;38819;42.692;23.342;2022-09-09T01:54:04;95471.16;;;19.17;67.92
52957;BME280;38819;42.692;23.342;2022-09-09T02:07:42;95470.47;;;19.08;68.34
52957;BME280;38819;42.692;23.342;2022-09-09T02:10:17;95469.66;;;19.07;68.70
52957;BME280;38819;42.692;23.342;2022-09-09T02:12:47;95472.53;;;19.11;68.29
52957;BME280;38819;42.692;23.342;2022-09-09T02:15:24;95465.44;;;19.10;68.40
52957;BME280;38819;42.692;23.342;2022-09-09T02:17:51;95447.06;;;18.98;69.21
52957;BME280;38819;42.692;23.342;2022-09-09T02:20:18;95453.44;;;18.90;69.03
52957;BME280;38819;42.692;23.342;2022-09-09T02:22:48;95454.25;;;18.91;68.87
52957;BME280;38819;42.692;23.342;2022-09-09T02:25:16;95465.63;;;18.93;68.93
52957;BME280;38819;42.692;23.342;2022-09-09T02:27:44;95463.28;;;18.91;68.41
52957;BME280;38819;42.692;23.342;2022-09-09T02:30:11;95469.31;;;18.84;68.58
52957;BME280;38819;42.692;23.342;2022-09-09T02:32:38;95469.63;;;18.83;69.00
52957;BME280;38819;42.692;23.342;2022-09-09T02:35:08;95474.06;;;18.87;68.98
52957;BME280;38819;42.692;23.342;2022-09-09T02:37:39;95471.75;;;18.77;69.78
52957;BME280;38819;42.692;23.342;2022-09-09T02:40:06;95472.59;;;18.90;68.83
52957;BME280;38819;42.692;23.342;2022-09-09T02:42:41;95476.00;;;18.87;68.14
52957;BME280;38819;42.692;23.342;2022-09-09T02:45:10;95480.59;;;18.95;67.63
52957;BME280;38819;42.692;23.342;2022-09-09T02:47:41;95477.13;;;18.86;67.68
52957;BME280;38819;42.692;23.342;2022-09-09T02:50:13;95490.28;;;18.93;66.60
52957;BME280;38819;42.692;23.342;2022-09-09T02:58:13;95478.16;;;18.81;66.69
52957;BME280;38819;42.692;23.342;2022-09-09T03:00:43;95477.84;;;18.83;67.27
52957;BME280;38819;42.692;23.342;2022-09-09T03:03:09;95476.22;;;18.82;67.58
52957;BME280;38819;42.692;23.342;2022-09-09T03:05:35;95479.44;;;18.84;68.58
52957;BME280;38819;42.692;23.342;2022-09-09T03:08:01;95480.69;;;18.86;68.52
52957;BME280;38819;42.692;23.342;2022-09-09T03:10:27;95485.84;;;18.88;68.58
52957;BME280;38819;42.692;23.342;2022-09-09T03:12:52;95479.63;;;18.79;68.33
52957;BME280;38819;42.692;23.342;2022-09-09T03:15:18;95484.63;;;18.77;67.42
52957;BME280;38819;42.692;23.342;2022-09-09T03:17:44;95487.16;;;18.82;67.85
52957;BME280;38819;42.692;23.342;2022-09-09T03:20:09;95484.28;;;18.78;68.17
52957;BME280;38819;42.692;23.342;2022-09-09T03:22:35;95481.66;;;18.69;68.66
52957;BME280;38819;42.692;23.342;2022-09-09T03:25:00;95471.72;;;18.65;68.78
52957;BME280;38819;42.692;23.342;2022-09-09T03:27:28;95473.53;;;18.61;69.04
52957;BME280;38819;42.692;23.342;2022-09-09T03:29:53;95477.88;;;18.62;68.68
52957;BME280;38819;42.692;23.342;2022-09-09T03:32:19;95485.28;;;18.61;68.64
52957;BME280;38819;42.692;23.342;2022-09-09T03:34:47;95482.88;;;18.60;68.52
52957;BME280;38819;42.692;23.342;2022-09-09T03:37:15;95485.28;;;18.61;68.67
52957;BME280;38819;42.692;23.342;2022-09-09T03:39:40;95482.53;;;18.61;68.93
52957;BME280;38819;42.692;23.342;2022-09-09T03:42:06;95473.19;;;18.62;69.12
52957;BME280;38819;42.692;23.342;2022-09-09T03:44:31;95477.53;;;18.63;68.61
52957;BME280;38819;42.692;23.342;2022-09-09T03:46:57;95478.53;;;18.59;68.90
52957;BME280;38819;42.692;23.342;2022-09-09T03:49:26;95484.44;;;18.48;69.13
52957;BME280;38819;42.692;23.342;2022-09-09T03:51:51;95484.22;;;18.54;68.58
52957;BME280;38819;42.692;23.342;2022-09-09T03:54:17;95481.59;;;18.57;68.52
52957;BME280;38819;42.692;23.342;2022-09-09T03:56:42;95490.91;;;18.44;68.92
52957;BME280;38819;42.692;23.342;2022-09-09T03:59:07;95488.63;;;18.46;68.71
52957;BME280;38819;42.692;23.342;2022-09-09T04:01:34;95490.25;;;18.47;68.71
52957;BME280;38819;42.692;23.342;2022-09-09T04:03:59;95494.25;;;18.49;68.48
52957;BME280;38819;42.692;23.342;2022-09-09T04:06:25;95494.59;;;18.48;68.77
52957;BME280;38819;42.692;23.342;2022-09-09T04:08:51;95494.59;;;18.48;68.59
52957;BME280;38819;42.692;23.342;2022-09-09T04:11:17;95497.44;;;18.51;68.85
52957;BME280;38819;42.692;23.342;2022-09-09T04:13:43;95495.25;;;18.45;69.29
52957;BME280;38819;42.692;23.342;2022-09-09T04:16:11;95484.53;;;18.40;69.46
52957;BME280;38819;42.692;23.342;2022-09-09T04:18:38;95482.97;;;18.51;69.04
52957;BME280;38819;42.692;23.342;2022-09-09T04:21:04;95486.84;;;18.50;68.48
52957;BME280;38819;42.692;23.342;2022-09-09T04:23:31;95489.78;;;18.45;68.91
52957;BME280;38819;42.692;23.342;2022-09-09T04:26:00;95487.97;;;18.49;68.33
52957;BME280;38819;42.692;23.342;2022-09-09T04:28:29;95480.38;;;18.55;68.36
52957;BME280;38819;42.692;23.342;2022-09-09T04:30:55;95486.63;;;18.55;68.55
52957;BME280;38819;42.692;23.342;2022-09-09T04:33:23;95494.38;;;18.53;68.57
52957;BME280;38819;42.692;23.342;2022-09-09T04:35:51;95489.81;;;18.57;67.64
52957;BME280;38819;42.692;23.342;2022-09-09T04:38:18;95493.38;;;18.58;66.78
52957;BME280;38819;42.692;23.342;2022-09-09T04:40:46;95492.94;;;18.68;66.80
52957;BME280;38819;42.692;23.342;2022-09-09T04:43:12;95496.25;;;18.74;67.00
52957;BME280;38819;42.692;23.342;2022-09-09T04:45:40;95497.53;;;18.76;67.12
52957;BME280;38819;42.692;23.342;2022-09-09T04:48:06;95497.47;;;18.85;66.94
52957;BME280;38819;42.692;23.342;2022-09-09T04:50:31;95492.22;;;18.92;66.94
52957;BME280;38819;42.692;23.342;2022-09-09T04:53:00;95486.63;;;18.88;66.81
52957;BME280;38819;42.692;23.342;2022-09-09T04:55:26;95489.38;;;18.88;67.06
52957;BME280;38819;42.692;23.342;2022-09-09T04:57:51;95482.44;;;18.91;67.37
52957;BME280;38819;42.692;23.342;2022-09-09T05:00:17;95476.13;;;18.91;67.19
52957;BME280;38819;42.692;23.342;2022-09-09T05:02:42;95473.50;;;18.94;67.06
52957;BME280;38819;42.692;23.342;2022-09-09T05:05:07;95479.91;;;18.98;66.62
52957;BME280;38819;42.692;23.342;2022-09-09T05:07:33;95484.03;;;19.04;66.35
52957;BME280;38819;42.692;23.342;2022-09-09T05:09:58;95470.47;;;19.08;66.19
52957;BME280;38819;42.692;23.342;2022-09-09T05:12:24;95470.00;;;19.06;66.02
52957;BME280;38819;42.692;23.342;2022-09-09T05:14:51;95469.19;;;19.05;65.28
52957;BME280;38819;42.692;23.342;2022-09-09T05:17:17;95474.09;;;19.12;64.70
52957;BME280;38819;42.692;23.342;2022-09-09T05:19:43;95475.50;;;19.18;64.24
52957;BME280;38819;42.692;23.342;2022-09-09T05:22:09;95479.03;;;19.19;64.13
52957;BME280;38819;42.692;23.342;2022-09-09T05:24:34;95471.84;;;19.27;63.66
52957;BME280;38819;42.692;23.342;2022-09-09T05:27:01;95474.34;;;19.32;63.33
52957;BME280;38819;42.692;23.342;2022-09-09T05:29:27;95466.38;;;19.27;63.42
52957;BME280;38819;42.692;23.342;2022-09-09T05:31:53;95464.53;;;19.18;63.87
52957;BME280;38819;42.692;23.342;2022-09-09T05:34:19;95468.28;;;19.14;63.68
52957;BME280;38819;42.692;23.342;2022-09-09T05:36:46;95466.25;;;19.23;63.61
52957;BME280;38819;42.692;23.342;2022-09-09T05:39:12;95467.84;;;19.24;63.81
52957;BME280;38819;42.692;23.342;2022-09-09T05:41:37;95473.31;;;19.24;63.46
52957;BME280;38819;42.692;23.342;2022-09-09T05:44:03;95471.63;;;19.32;63.52
52957;BME280;38819;42.692;23.342;2022-09-09T05:46:28;95469.69;;;19.44;62.91
52957;BME280;38819;42.692;23.342;2022-09-09T05:48:54;95471.38;;;19.49;63.00
52957;BME280;38819;42.692;23.342;2022-09-09T05:51:24;95478.56;;;19.54;62.98
52957;BME280;38819;42.692;23.342;2022-09-09T05:53:52;95472.63;;;19.64;62.56
52957;BME280;38819;42.692;23.342;2022-09-09T05:56:22;95476.28;;;19.68;62.62
52957;BME280;38819;42.692;23.342;2022-09-09T05:58:50;95479.25;;;19.75;62.27
52957;BME280;38819;42.692;23.342;2022-09-09T06:01:19;95477.78;;;19.78;61.91
52957;BME280;38819;42.692;23.342;2022-09-09T06:03:46;95481.22;;;19.75;61.63
52957;BME280;38819;42.692;23.342;2022-09-09T06:06:15;95490.19;;;19.88;61.40
52957;BME280;38819;42.692;23.342;2022-09-09T06:08:42;95501.97;;;19.88;60.25
52957;BME280;38819;42.692;23.342;2022-09-09T06:11:19;95482.53;;;19.93;59.61
52957;BME280;38819;42.692;23.342;2022-09-09T06:13:44;95492.34;;;20.07;59.31
52957;BME280;38819;42.692;23.342;2022-09-09T06:16:13;95487.97;;;20.18;59.19
52957;BME280;38819;42.692;23.342;2022-09-09T06:18:40;95486.41;;;20.33;58.45
52957;BME280;38819;42.692;23.342;2022-09-09T06:21:09;95491.28;;;20.40;57.79
52957;BME280;38819;42.692;23.342;2022-09-09T06:23:36;95497.25;;;20.42;57.88
52957;BME280;38819;42.692;23.342;2022-09-09T06:26:11;95493.41;;;20.30;57.65
52957;BME280;38819;42.692;23.342;2022-09-09T06:28:37;95496.09;;;20.43;57.52
52957;BME280;38819;42.692;23.342;2022-09-09T06:31:07;95499.06;;;20.50;57.00
52957;BME280;38819;42.692;23.342;2022-09-09T06:33:35;95500.03;;;20.58;57.26
52957;BME280;38819;42.692;23.342;2022-09-09T06:36:03;95492.72;;;20.62;57.11
52957;BME280;38819;42.692;23.342;2022-09-09T06:38:29;95482.38;;;20.71;56.65
52957;BME280;38819;42.692;23.342;2022-09-09T06:40:55;95480.91;;;20.61;56.64
52957;BME280;38819;42.692;23.342;2022-09-09T06:43:22;95479.78;;;20.62;56.05
52957;BME280;38819;42.692;23.342;2022-09-09T06:46:09;95474.72;;;20.48;56.68
52957;BME280;38819;42.692;23.342;2022-09-09T06:48:36;95472.59;;;20.58;56.41
52957;BME280;38819;42.692;23.342;2022-09-09T06:51:13;95479.91;;;20.66;56.29
52957;BME280;38819;42.692;23.342;2022-09-09T06:53:41;95488.53;;;20.80;56.46
52957;BME280;38819;42.692;23.342;2022-09-09T06:58:35;95488.47;;;21.08;55.46
52957;BME280;38819;42.692;23.342;2022-09-09T07:01:12;95494.38;;;21.26;55.36
52957;BME280;38819;42.692;23.342;2022-09-09T07:03:38;95493.50;;;21.38;55.09
52957;BME280;38819;42.692;23.342;2022-09-09T07:06:05;95504.44;;;21.51;55.15
52957;BME280;38819;42.692;23.342;2022-09-09T07:08:31;95496.78;;;21.60;54.63
52957;BME280;38819;42.692;23.342;2022-09-09T07:11:04;95485.91;;;21.63;54.44
52957;BME280;38819;42.692;23.342;2022-09-09T07:13:30;95489.53;;;21.68;54.07
52957;BME280;38819;42.692;23.342;2022-09-09T07:16:06;95481.78;;;21.73;54.47
52957;BME280;38819;42.692;23.342;2022-09-09T07:18:32;95484.72;;;21.80;53.79
52957;BME280;38819;42.692;23.342;2022-09-09T07:20:58;95480.97;;;21.89;53.09
52957;BME280;38819;42.692;23.342;2022-09-09T07:23:24;95479.97;;;21.97;52.56
52957;BME280;38819;42.692;23.342;2022-09-09T07:25:50;95480.56;;;22.06;52.59
52957;BME280;38819;42.692;23.342;2022-09-09T07:28:17;95480.19;;;22.08;52.90
52957;BME280;38819;42.692;23.342;2022-09-09T07:30:42;95478.31;;;21.92;52.32
52957;BME280;38819;42.692;23.342;2022-09-09T07:33:09;95487.19;;;22.05;52.40
52957;BME280;38819;42.692;23.342;2022-09-09T07:35:38;95479.75;;;22.06;52.01
52957;BME280;38819;42.692;23.342;2022-09-09T07:38:03;95465.75;;;21.95;52.28
52957;BME280;38819;42.692;23.342;2022-09-09T07:40:32;95465.72;;;22.11;51.73
52957;BME280;38819;42.692;23.342;2022-09-09T07:42:59;95471.78;;;22.20;52.30
52957;BME280;38819;42.692;23.342;2022-09-09T07:45:24;95479.25;;;22.19;52.03
52957;BME280;38819;42.692;23.342;2022-09-09T07:47:50;95482.28;;;22.30;51.12
52957;BME280;38819;42.692;23.342;2022-09-09T07:50:17;95479.72;;;22.41;50.77
52957;BME280;38819;42.692;23.342;2022-09-09T07:52:43;95484.16;;;22.46;50.66
52957;BME280;38819;42.692;23.342;2022-09-09T07:55:08;95487.47;;;22.55;50.26
52957;BME280;38819;42.692;23.342;2022-09-09T07:57:34;95483.94;;;22.54;50.67
52957;BME280;38819;42.692;23.342;2022-09-09T07:59:59;95474.59;;;22.59;50.24
52957;BME280;38819;42.692;23.342;2022-09-09T08:02:25;95470.75;;;22.64;50.71
52957;BME280;38819;42.692;23.342;2022-09-09T08:04:53;95470.34;;;22.65;50.83
52957;BME280;38819;42.692;23.342;2022-09-09T08:07:18;95469.97;;;22.44;50.30
52957;BME280;38819;42.692;23.342;2022-09-09T08:09:46;95474.22;;;22.61;50.16
52957;BME280;38819;42.692;23.342;2022-09-09T08:12:11;95469.28;;;22.70;50.36
52957;BME280;38819;42.692;23.342;2022-09-09T08:14:38;95473.25;;;22.72;50.84
52957;BME280;38819;42.692;23.342;2022-09-09T08:17:04;95465.84;;;22.76;50.53
52957;BME280;38819;42.692;23.342;2022-09-09T08:19:30;95463.03;;;22.73;50.29
52957;BME280;38819;42.692;23.342;2022-09-09T08:21:59;95467.53;;;22.81;50.35
52957;BME280;38819;42.692;23.342;2022-09-09T08:24:26;95462.06;;;22.85;50.74
52957;BME280;38819;42.692;23.342;2022-09-09T08:26:52;95468.16;;;22.94;50.62
52957;BME280;38819;42.692;23.342;2022-09-09T08:29:19;95470.25;;;23.01;50.35
52957;BME280;38819;42.692;23.342;2022-09-09T08:31:50;95472.19;;;23.00;50.14
52957;BME280;38819;42.692;23.342;2022-09-09T08:34:16;95467.69;;;22.92;50.66
52957;BME280;38819;42.692;23.342;2022-09-09T08:36:45;95453.69;;;22.78;51.38
52957;BME280;38819;42.692;23.342;2022-09-09T08:39:13;95471.00;;;22.78;51.45
52957;BME280;38819;42.692;23.342;2022-09-09T08:47:22;95455.59;;;22.97;51.26
52957;BME280;38819;42.692;23.342;2022-09-09T08:50:19;95456.25;;;23.09;51.19
52957;BME280;38819;42.692;23.342;2022-09-09T08:53:04;95453.06;;;23.07;51.77
52957;BME280;38819;42.692;23.342;2022-09-09T08:55:56;95454.84;;;23.19;50.74
52957;BME280;38819;42.692;23.342;2022-09-09T08:58:29;95460.16;;;23.31;50.92
52957;BME280;38819;42.692;23.342;2022-09-09T09:07:00;95456.22;;;23.56;50.46
52957;BME280;38819;42.692;23.342;2022-09-09T09:10:17;95457.13;;;23.67;50.25
52957;BME280;38819;42.692;23.342;2022-09-09T09:12:19;95454.84;;;23.69;50.59
52957;BME280;38819;42.692;23.342;2022-09-09T09:14:47;95455.72;;;23.77;49.92
52957;BME280;38819;42.692;23.342;2022-09-09T09:17:16;95447.97;;;23.82;49.95
52957;BME280;38819;42.692;23.342;2022-09-09T09:19:44;95446.69;;;23.80;50.38
52957;BME280;38819;42.692;23.342;2022-09-09T09:22:42;95452.53;;;23.75;49.87
52957;BME280;38819;42.692;23.342;2022-09-09T09:30:28;95446.94;;;23.67;50.22
52957;BME280;38819;42.692;23.342;2022-09-09T09:35:38;95451.75;;;23.74;49.64
52957;BME280;38819;42.692;23.342;2022-09-09T09:38:20;95439.53;;;23.75;49.46
52957;BME280;38819;42.692;23.342;2022-09-09T09:40:52;95435.00;;;23.86;49.21
52957;BME280;38819;42.692;23.342;2022-09-09T09:43:37;95439.00;;;23.89;49.31
52957;BME280;38819;42.692;23.342;2022-09-09T09:46:05;95431.13;;;23.91;49.79
52957;BME280;38819;42.692;23.342;2022-09-09T09:48:43;95431.22;;;23.98;49.23
52957;BME280;38819;42.692;23.342;2022-09-09T09:51:10;95422.66;;;24.07;49.36
52957;BME280;38819;42.692;23.342;2022-09-09T09:53:39;95425.97;;;24.20;48.69
52957;BME280;38819;42.692;23.342;2022-09-09T09:56:10;95410.31;;;24.28;48.49
52957;BME280;38819;42.692;23.342;2022-09-09T09:58:56;95418.59;;;24.28;48.72
52957;BME280;38819;42.692;23.342;2022-09-09T10:01:29;95425.22;;;24.23;48.51
52957;BME280;38819;42.692;23.342;2022-09-09T10:04:20;95417.88;;;24.34;48.25
52957;BME280;38819;42.692;23.342;2022-09-09T10:06:47;95415.56;;;24.40;48.41
52957;BME280;38819;42.692;23.342;2022-09-09T10:09:29;95421.22;;;24.51;48.07
52957;BME280;38819;42.692;23.342;2022-09-09T10:15:02;95430.69;;;24.53;48.38
52957;BME280;38819;42.692;23.342;2022-09-09T10:20:25;95440.06;;;24.45;48.16
52957;BME280;38819;42.692;23.342;2022-09-09T10:26:07;95436.38;;;24.34;48.74
52957;BME280;38819;42.692;23.342;2022-09-09T10:29:16;95430.75;;;24.23;48.98
52957;BME280;38819;42.692;23.342;2022-09-09T10:37:03;95435.66;;;24.40;48.60
52957;BME280;38819;42.692;23.342;2022-09-09T10:39:38;95433.28;;;24.39;48.82
52957;BME280;38819;42.692;23.342;2022-09-09T10:42:09;95433.22;;;24.32;49.41
52957;BME280;38819;42.692;23.342;2022-09-09T10:50:22;95443.53;;;24.38;49.11
52957;BME280;38819;42.692;23.342;2022-09-09T10:56:09;95438.75;;;24.35;49.86
52957;BME280;38819;42.692;23.342;2022-09-09T10:58:48;95436.34;;;24.30;49.94
52957;BME280;38819;42.692;23.342;2022-09-09T11:01:22;95436.34;;;24.30;50.04
52957;BME280;38819;42.692;23.342;2022-09-09T11:03:54;95432.75;;;24.26;50.22
52957;BME280;38819;42.692;23.342;2022-09-09T11:06:28;95431.94;;;24.26;50.32
52957;BME280;38819;42.692;23.342;2022-09-09T11:08:57;95435.13;;;24.28;50.37
52957;BME280;38819;42.692;23.342;2022-09-09T11:11:39;95437.63;;;24.40;50.09
52957;BME280;38819;42.692;23.342;2022-09-09T11:14:12;95441.63;;;24.42;50.13
52957;BME280;38819;42.692;23.342;2022-09-09T11:16:59;95433.03;;;24.51;50.16
52957;BME280;38819;42.692;23.342;2022-09-09T11:19:42;95423.66;;;24.56;49.65
52957;BME280;38819;42.692;23.342;2022-09-09T11:22:29;95419.00;;;24.64;49.94
52957;BME280;38819;42.692;23.342;2022-09-09T11:25:23;95419.50;;;24.73;49.61
52957;BME280;38819;42.692;23.342;2022-09-09T11:41:36;95387.09;;;24.70;50.63
52957;BME280;38819;42.692;23.342;2022-09-09T11:44:11;95381.22;;;24.71;50.61
52957;BME280;38819;42.692;23.342;2022-09-09T11:46:38;95376.47;;;24.72;50.59
52957;BME280;38819;42.692;23.342;2022-09-09T11:49:43;95374.50;;;24.72;50.67
52957;BME280;38819;42.692;23.342;2022-09-09T11:52:25;95360.97;;;24.60;51.16
52957;BME280;38819;42.692;23.342;2022-09-09T11:55:27;95340.00;;;24.55;51.60
52957;BME280;38819;42.692;23.342;2022-09-09T11:58:06;95349.03;;;24.52;51.67
52957;BME280;38819;42.692;23.342;2022-09-09T12:00:49;95347.56;;;24.62;51.99
52957;BME280;38819;42.692;23.342;2022-09-09T12:03:34;95355.56;;;24.71;51.36
52957;BME280;38819;42.692;23.342;2022-09-09T12:06:25;95354.75;;;24.70;51.40
52957;BME280;38819;42.692;23.342;2022-09-09T12:08:56;95352.00;;;24.70;51.31
52957;BME280;38819;42.692;23.342;2022-09-09T12:11:28;95345.72;;;24.77;51.64
52957;BME280;38819;42.692;23.342;2022-09-09T12:13:57;95340.59;;;24.75;51.50
52957;BME280;38819;42.692;23.342;2022-09-09T12:16:42;95341.47;;;24.87;51.78
52957;BME280;38819;42.692;23.342;2022-09-09T12:19:18;95341.16;;;24.95;51.95
52957;BME280;38819;42.692;23.342;2022-09-09T12:22:05;95326.16;;;24.93;52.09
52957;BME280;38819;42.692;23.342;2022-09-09T12:24:37;95322.97;;;24.91;51.81
52957;BME280;38819;42.692;23.342;2022-09-09T12:27:28;95329.78;;;25.04;51.46
52957;BME280;38819;42.692;23.342;2022-09-09T12:30:09;95322.78;;;25.18;52.04
52957;BME280;38819;42.692;23.342;2022-09-09T12:32:36;95316.47;;;25.21;51.62
52957;BME280;38819;42.692;23.342;2022-09-09T12:35:15;95315.28;;;25.22;51.50
52957;BME280;38819;42.692;23.342;2022-09-09T12:40:23;95307.88;;;25.29;51.58
52957;BME280;38819;42.692;23.342;2022-09-09T12:42:49;95305.50;;;25.31;51.27
52957;BME280;38819;42.692;23.342;2022-09-09T12:45:20;95306.28;;;25.32;51.92
52957;BME280;38819;42.692;23.342;2022-09-09T12:47:54;95301.13;;;25.27;51.44
52957;BME280;38819;42.692;23.342;2022-09-09T12:50:27;95303.44;;;25.21;51.79
52957;BME280;38819;42.692;23.342;2022-09-09T12:53:22;95304.63;;;25.24;51.68
52957;BME280;38819;42.692;23.342;2022-09-09T12:58:20;95291.69;;;25.28;52.07
52957;BME280;38819;42.692;23.342;2022-09-09T13:00:51;95297.59;;;25.26;51.43
52957;BME280;38819;42.692;23.342;2022-09-09T13:03:19;95290.47;;;25.29;51.54
52957;BME280;38819;42.692;23.342;2022-09-09T13:05:46;95285.75;;;25.29;52.00
52957;BME280;38819;42.692;23.342;2022-09-09T13:08:14;95292.06;;;25.30;52.09
52957;BME280;38819;42.692;23.342;2022-09-09T13:11:07;95284.97;;;25.32;51.87
52957;BME280;38819;42.692;23.342;2022-09-09T13:13:36;95277.47;;;25.33;52.29
52957;BME280;38819;42.692;23.342;2022-09-09T13:16:05;95287.34;;;25.34;51.96
52957;BME280;38819;42.692;23.342;2022-09-09T13:18:35;95284.63;;;25.38;51.48
52957;BME280;38819;42.692;23.342;2022-09-09T13:21:02;95284.56;;;25.34;52.05
52957;BME280;38819;42.692;23.342;2022-09-09T13:23:30;95272.75;;;25.37;51.88
52957;BME280;38819;42.692;23.342;2022-09-09T13:26:24;95267.63;;;25.39;52.02
52957;BME280;38819;42.692;23.342;2022-09-09T13:28:51;95267.63;;;25.39;52.27
52957;BME280;38819;42.692;23.342;2022-09-09T13:33:49;95255.03;;;25.45;51.89
52957;BME280;38819;42.692;23.342;2022-09-09T13:36:15;95252.66;;;25.47;51.49
52957;BME280;38819;42.692;23.342;2022-09-09T13:38:56;95258.22;;;25.51;51.96
52957;BME280;38819;42.692;23.342;2022-09-09T13:41:24;95259.41;;;25.54;51.41
52957;BME280;38819;42.692;23.342;2022-09-09T13:43:50;95258.63;;;25.57;51.36
52957;BME280;38819;42.692;23.342;2022-09-09T13:46:36;95240.06;;;25.57;51.94
52957;BME280;38819;42.692;23.342;2022-09-09T13:49:18;95237.34;;;25.64;52.08
52957;BME280;38819;42.692;23.342;2022-09-09T13:51:47;95234.13;;;25.55;52.12
52957;BME280;38819;42.692;23.342;2022-09-09T13:54:16;95238.91;;;25.62;51.81
52957;BME280;38819;42.692;23.342;2022-09-09T13:56:42;95240.88;;;25.65;52.61
52957;BME280;38819;42.692;23.342;2022-09-09T13:59:17;95241.28;;;25.70;51.46
52957;BME280;38819;42.692;23.342;2022-09-09T14:01:45;95237.34;;;25.68;51.92
52957;BME280;38819;42.692;23.342;2022-09-09T14:04:10;95240.91;;;25.72;51.58
52957;BME280;38819;42.692;23.342;2022-09-09T14:06:36;95232.59;;;25.72;51.83
52957;BME280;38819;42.692;23.342;2022-09-09T14:09:11;95238.56;;;25.78;52.25
52957;BME280;38819;42.692;23.342;2022-09-09T14:11:38;95229.88;;;25.86;51.25
52957;BME280;38819;42.692;23.342;2022-09-09T14:14:03;95226.31;;;25.79;52.10
52957;BME280;38819;42.692;23.342;2022-09-09T14:16:29;95226.69;;;25.81;52.56
52957;BME280;38819;42.692;23.342;2022-09-09T14:18:55;95226.34;;;25.93;52.05
52957;BME280;38819;42.692;23.342;2022-09-09T14:21:25;95224.38;;;25.90;51.21
52957;BME280;38819;42.692;23.342;2022-09-09T14:23:50;95212.50;;;25.89;51.24
52957;BME280;38819;42.692;23.342;2022-09-09T14:26:16;95218.88;;;25.97;50.89
52957;BME280;38819;42.692;23.342;2022-09-09T14:28:41;95216.91;;;25.98;50.91
52957;BME280;38819;42.692;23.342;2022-09-09T14:31:07;95210.13;;;25.92;50.92
52957;BME280;38819;42.692;23.342;2022-09-09T14:33:33;95225.91;;;25.87;51.00
52957;BME280;38819;42.692;23.342;2022-09-09T14:36:00;95217.22;;;25.82;50.64
52957;BME280;38819;42.692;23.342;2022-09-09T14:38:29;95218.00;;;25.82;50.69
52957;BME280;38819;42.692;23.342;2022-09-09T14:40:55;95222.34;;;25.76;50.82
52957;BME280;38819;42.692;23.342;2022-09-09T14:43:21;95213.25;;;25.72;51.13
52957;BME280;38819;42.692;23.342;2022-09-09T14:45:47;95214.03;;;25.73;51.75
52957;BME280;38819;42.692;23.342;2022-09-09T14:48:14;95214.44;;;25.78;51.43
52957;BME280;38819;42.692;23.342;2022-09-09T14:50:40;95216.44;;;25.78;49.53
52957;BME280;38819;42.692;23.342;2022-09-09T14:53:07;95213.25;;;25.76;50.06
52957;BME280;38819;42.692;23.342;2022-09-09T14:55:32;95217.22;;;25.82;50.06
52957;BME280;38819;42.692;23.342;2022-09-09T14:57:58;95223.13;;;25.77;49.54
52957;BME280;38819;42.692;23.342;2022-09-09T15:00:23;95214.84;;;25.69;49.78
52957;BME280;38819;42.692;23.342;2022-09-09T15:02:52;95214.41;;;25.67;49.22
52957;BME280;38819;42.692;23.342;2022-09-09T15:05:18;95222.75;;;25.75;49.36
52957;BME280;38819;42.692;23.342;2022-09-09T15:07:44;95225.09;;;25.69;50.57